sensor_id;sensor_type;location;lat;lon;timestamp;P1;durP1;ratioP1;P2;durP2;ratioP2
6346;SDS011;3206;42.666;23.600;2022-09-20T00:01:13;0.30;;;0.30;;
6346;SDS011;3206;42.666;23.600;2022-09-20T00:03:42;0.30;;;0.30;;
6346;SDS011;3206;42.666;23.600;2022-09-20T00:06:11;0.30;;;0.30;;
6346;SDS011;3206;42.666;23.600;2022-09-20T00:08:39;0.40;;;0.40;;
6346;SDS011;3206;42.666;23.600;2022-09-20T00:11:07;0.60;;;0.60;;
6346;SDS011;3206;42.666;23.600;2022-09-20T00:13:36;0.40;;;0.40;;
6346;SDS011;3206;42.666;23.600;2022-09-20T00:16:06;0.30;;;0.30;;
6346;SDS011;3206;42.666;23.600;2022-09-20T00:18:34;0.40;;;0.40;;
6346;SDS011;3206;42.666;23.600;2022-09-20T00:21:01;0.30;;;0.30;;
6346;SDS011;3206;42.666;23.600;2022-09-20T00:23:29;0.40;;;0.40;;
6346;SDS011;3206;42.666;23.600;2022-09-20T00:25:57;0.40;;;0.40;;
6346;SDS011;3206;42.666;23.600;2022-09-20T00:28:25;0.40;;;0.40;;
6346;SDS011;3206;42.666;23.600;2022-09-20T00:30:53;0.40;;;0.40;;
6346;SDS011;3206;42.666;23.600;2022-09-20T00:33:22;0.30;;;0.30;;
6346;SDS011;3206;42.666;23.600;2022-09-20T00:36:10;0.30;;;0.30;;
6346;SDS011;3206;42.666;23.600;2022-09-20T00:38:36;0.30;;;0.30;;
6346;SDS011;3206;42.666;23.600;2022-09-20T00:41:02;0.50;;;0.50;;
6346;SDS011;3206;42.666;23.600;2022-09-20T00:43:36;0.20;;;0.20;;
6346;SDS011;3206;42.666;23.600;2022-09-20T00:46:05;0.50;;;0.50;;
6346;SDS011;3206;42.666;23.600;2022-09-20T00:48:46;0.50;;;0.50;;
6346;SDS011;3206;42.666;23.600;2022-09-20T00:51:14;0.30;;;0.30;;
6346;SDS011;3206;42.666;23.600;2022-09-20T00:53:46;0.40;;;0.40;;
6346;SDS011;3206;42.666;23.600;2022-09-20T00:56:16;0.40;;;0.40;;
6346;SDS011;3206;42.666;23.600;2022-09-20T00:58:48;0.37;;;0.37;;
6346;SDS011;3206;42.666;23.600;2022-09-20T01:01:19;0.40;;;0.40;;
6346;SDS011;3206;42.666;23.600;2022-09-20T01:03:47;0.40;;;0.40;;
6346;SDS011;3206;42.666;23.600;2022-09-20T01:06:14;0.40;;;0.40;;
6346;SDS011;3206;42.666;23.600;2022-09-20T01:08:50;0.30;;;0.30;;
6346;SDS011;3206;42.666;23.600;2022-09-20T01:11:21;0.50;;;0.50;;
6346;SDS011;3206;42.666;23.600;2022-09-20T01:13:48;0.37;;;0.37;;
6346;SDS011;3206;42.666;23.600;2022-09-20T01:16:14;0.43;;;0.43;;
6346;SDS011;3206;42.666;23.600;2022-09-20T01:18:43;0.40;;;0.40;;
6346;SDS011;3206;42.666;23.600;2022-09-20T01:21:12;0.50;;;0.50;;
6346;SDS011;3206;42.666;23.600;2022-09-20T01:23:44;0.40;;;0.40;;
6346;SDS011;3206;42.666;23.600;2022-09-20T01:26:28;0.43;;;0.43;;
6346;SDS011;3206;42.666;23.600;2022-09-20T01:29:16;0.30;;;0.30;;
6346;SDS011;3206;42.666;23.600;2022-09-20T01:31:52;0.50;;;0.50;;
6346;SDS011;3206;42.666;23.600;2022-09-20T01:34:22;0.40;;;0.40;;
6346;SDS011;3206;42.666;23.600;2022-09-20T01:36:56;0.20;;;0.20;;
6346;SDS011;3206;42.666;23.600;2022-09-20T01:39:32;0.40;;;0.40;;
6346;SDS011;3206;42.666;23.600;2022-09-20T01:42:06;0.20;;;0.20;;
6346;SDS011;3206;42.666;23.600;2022-09-20T01:44:37;0.30;;;0.30;;
6346;SDS011;3206;42.666;23.600;2022-09-20T01:47:10;0.30;;;0.30;;
6346;SDS011;3206;42.666;23.600;2022-09-20T01:49:54;0.40;;;0.40;;
6346;SDS011;3206;42.666;23.600;2022-09-20T01:55:37;0.40;;;0.40;;
6346;SDS011;3206;42.666;23.600;2022-09-20T01:58:36;0.53;;;0.43;;
6346;SDS011;3206;42.666;23.600;2022-09-20T02:01:40;0.40;;;0.40;;
6346;SDS011;3206;42.666;23.600;2022-09-20T02:07:51;0.30;;;0.30;;
6346;SDS011;3206;42.666;23.600;2022-09-20T02:10:37;0.30;;;0.30;;
6346;SDS011;3206;42.666;23.600;2022-09-20T02:13:16;0.40;;;0.40;;
6346;SDS011;3206;42.666;23.600;2022-09-20T02:16:10;0.37;;;0.37;;
6346;SDS011;3206;42.666;23.600;2022-09-20T02:19:00;0.50;;;0.50;;
6346;SDS011;3206;42.666;23.600;2022-09-20T02:21:37;0.40;;;0.40;;
6346;SDS011;3206;42.666;23.600;2022-09-20T02:24:15;0.30;;;0.30;;
6346;SDS011;3206;42.666;23.600;2022-09-20T02:26:55;0.33;;;0.33;;
6346;SDS011;3206;42.666;23.600;2022-09-20T02:29:36;0.30;;;0.30;;
6346;SDS011;3206;42.666;23.600;2022-09-20T02:32:11;0.47;;;0.47;;
6346;SDS011;3206;42.666;23.600;2022-09-20T02:34:56;0.60;;;0.60;;
6346;SDS011;3206;42.666;23.600;2022-09-20T02:37:43;0.30;;;0.30;;
6346;SDS011;3206;42.666;23.600;2022-09-20T02:40:24;0.57;;;0.57;;
6346;SDS011;3206;42.666;23.600;2022-09-20T02:43:02;0.30;;;0.30;;
6346;SDS011;3206;42.666;23.600;2022-09-20T02:45:38;0.50;;;0.50;;
6346;SDS011;3206;42.666;23.600;2022-09-20T02:48:13;0.30;;;0.30;;
6346;SDS011;3206;42.666;23.600;2022-09-20T02:50:46;0.50;;;0.50;;
6346;SDS011;3206;42.666;23.600;2022-09-20T02:53:24;0.50;;;0.50;;
6346;SDS011;3206;42.666;23.600;2022-09-20T02:56:02;0.50;;;0.50;;
6346;SDS011;3206;42.666;23.600;2022-09-20T02:58:37;0.40;;;0.40;;
6346;SDS011;3206;42.666;23.600;2022-09-20T03:01:15;0.40;;;0.40;;
6346;SDS011;3206;42.666;23.600;2022-09-20T03:03:50;0.73;;;0.40;;
6346;SDS011;3206;42.666;23.600;2022-09-20T03:06:31;0.40;;;0.40;;
6346;SDS011;3206;42.666;23.600;2022-09-20T03:09:06;0.57;;;0.57;;
6346;SDS011;3206;42.666;23.600;2022-09-20T03:11:40;0.60;;;0.60;;
6346;SDS011;3206;42.666;23.600;2022-09-20T03:14:15;0.70;;;0.70;;
6346;SDS011;3206;42.666;23.600;2022-09-20T03:16:53;0.30;;;0.30;;
6346;SDS011;3206;42.666;23.600;2022-09-20T03:19:42;0.40;;;0.40;;
6346;SDS011;3206;42.666;23.600;2022-09-20T03:22:25;0.40;;;0.40;;
6346;SDS011;3206;42.666;23.600;2022-09-20T03:25:21;0.37;;;0.37;;
6346;SDS011;3206;42.666;23.600;2022-09-20T03:28:03;0.40;;;0.40;;
6346;SDS011;3206;42.666;23.600;2022-09-20T03:30:44;0.40;;;0.40;;
6346;SDS011;3206;42.666;23.600;2022-09-20T03:33:28;0.30;;;0.30;;
6346;SDS011;3206;42.666;23.600;2022-09-20T03:36:11;0.70;;;0.70;;
6346;SDS011;3206;42.666;23.600;2022-09-20T03:39:02;0.67;;;0.67;;
6346;SDS011;3206;42.666;23.600;2022-09-20T03:41:44;0.40;;;0.40;;
6346;SDS011;3206;42.666;23.600;2022-09-20T03:44:30;0.60;;;0.60;;
6346;SDS011;3206;42.666;23.600;2022-09-20T03:47:11;0.73;;;0.73;;
6346;SDS011;3206;42.666;23.600;2022-09-20T03:50:03;0.40;;;0.40;;
6346;SDS011;3206;42.666;23.600;2022-09-20T03:52:51;0.40;;;0.40;;
6346;SDS011;3206;42.666;23.600;2022-09-20T03:55:39;0.30;;;0.30;;
6346;SDS011;3206;42.666;23.600;2022-09-20T03:58:33;0.50;;;0.50;;
6346;SDS011;3206;42.666;23.600;2022-09-20T04:01:27;0.60;;;0.60;;
6346;SDS011;3206;42.666;23.600;2022-09-20T04:04:06;0.80;;;0.80;;
6346;SDS011;3206;42.666;23.600;2022-09-20T04:06:44;0.70;;;0.70;;
6346;SDS011;3206;42.666;23.600;2022-09-20T04:12:15;0.40;;;0.40;;
6346;SDS011;3206;42.666;23.600;2022-09-20T04:14:52;0.43;;;0.43;;
6346;SDS011;3206;42.666;23.600;2022-09-20T04:17:30;0.50;;;0.50;;
6346;SDS011;3206;42.666;23.600;2022-09-20T04:20:12;0.73;;;0.73;;
6346;SDS011;3206;42.666;23.600;2022-09-20T04:22:44;0.80;;;0.80;;
6346;SDS011;3206;42.666;23.600;2022-09-20T04:25:16;0.70;;;0.70;;
6346;SDS011;3206;42.666;23.600;2022-09-20T04:27:48;0.67;;;0.67;;
6346;SDS011;3206;42.666;23.600;2022-09-20T04:30:20;1.03;;;1.03;;
6346;SDS011;3206;42.666;23.600;2022-09-20T04:32:50;0.73;;;0.73;;
6346;SDS011;3206;42.666;23.600;2022-09-20T04:35:28;0.87;;;0.87;;
6346;SDS011;3206;42.666;23.600;2022-09-20T04:38:22;0.87;;;0.87;;
6346;SDS011;3206;42.666;23.600;2022-09-20T04:40:56;0.60;;;0.60;;
6346;SDS011;3206;42.666;23.600;2022-09-20T04:47:10;0.60;;;0.60;;
6346;SDS011;3206;42.666;23.600;2022-09-20T04:53:17;0.80;;;0.80;;
6346;SDS011;3206;42.666;23.600;2022-09-20T04:55:55;0.40;;;0.40;;
6346;SDS011;3206;42.666;23.600;2022-09-20T05:11:03;0.67;;;0.67;;
6346;SDS011;3206;42.666;23.600;2022-09-20T05:13:57;0.70;;;0.70;;
6346;SDS011;3206;42.666;23.600;2022-09-20T05:16:50;0.67;;;0.67;;
6346;SDS011;3206;42.666;23.600;2022-09-20T05:19:30;0.50;;;0.50;;
6346;SDS011;3206;42.666;23.600;2022-09-20T05:22:07;0.53;;;0.53;;
6346;SDS011;3206;42.666;23.600;2022-09-20T05:25:26;0.50;;;0.50;;
6346;SDS011;3206;42.666;23.600;2022-09-20T05:28:07;0.70;;;0.70;;
6346;SDS011;3206;42.666;23.600;2022-09-20T05:30:40;0.63;;;0.63;;
6346;SDS011;3206;42.666;23.600;2022-09-20T05:33:14;0.80;;;0.80;;
6346;SDS011;3206;42.666;23.600;2022-09-20T05:35:50;0.93;;;0.93;;
6346;SDS011;3206;42.666;23.600;2022-09-20T05:38:28;1.00;;;0.90;;
6346;SDS011;3206;42.666;23.600;2022-09-20T05:41:06;0.63;;;0.63;;
6346;SDS011;3206;42.666;23.600;2022-09-20T05:43:41;0.43;;;0.43;;
6346;SDS011;3206;42.666;23.600;2022-09-20T05:46:21;0.60;;;0.60;;
6346;SDS011;3206;42.666;23.600;2022-09-20T05:49:01;0.70;;;0.70;;
6346;SDS011;3206;42.666;23.600;2022-09-20T05:51:41;1.33;;;1.27;;
6346;SDS011;3206;42.666;23.600;2022-09-20T05:54:32;0.90;;;0.90;;
6346;SDS011;3206;42.666;23.600;2022-09-20T05:57:20;0.63;;;0.63;;
6346;SDS011;3206;42.666;23.600;2022-09-20T05:59:59;0.93;;;0.93;;
6346;SDS011;3206;42.666;23.600;2022-09-20T06:02:32;0.60;;;0.60;;
6346;SDS011;3206;42.666;23.600;2022-09-20T06:05:09;0.50;;;0.50;;
6346;SDS011;3206;42.666;23.600;2022-09-20T06:07:48;0.50;;;0.50;;
6346;SDS011;3206;42.666;23.600;2022-09-20T06:10:29;0.60;;;0.60;;
6346;SDS011;3206;42.666;23.600;2022-09-20T06:13:10;0.40;;;0.40;;
6346;SDS011;3206;42.666;23.600;2022-09-20T06:16:03;0.87;;;0.87;;
6346;SDS011;3206;42.666;23.600;2022-09-20T06:18:33;0.40;;;0.40;;
6346;SDS011;3206;42.666;23.600;2022-09-20T06:21:12;0.30;;;0.30;;
6346;SDS011;3206;42.666;23.600;2022-09-20T06:23:47;0.47;;;0.47;;
6346;SDS011;3206;42.666;23.600;2022-09-20T06:26:15;0.60;;;0.60;;
6346;SDS011;3206;42.666;23.600;2022-09-20T06:28:48;0.63;;;0.63;;
6346;SDS011;3206;42.666;23.600;2022-09-20T06:31:17;0.40;;;0.40;;
6346;SDS011;3206;42.666;23.600;2022-09-20T06:33:44;0.53;;;0.53;;
6346;SDS011;3206;42.666;23.600;2022-09-20T06:36:20;0.50;;;0.50;;
6346;SDS011;3206;42.666;23.600;2022-09-20T06:39:11;0.40;;;0.40;;
6346;SDS011;3206;42.666;23.600;2022-09-20T06:42:05;0.50;;;0.43;;
6346;SDS011;3206;42.666;23.600;2022-09-20T06:44:34;0.60;;;0.60;;
6346;SDS011;3206;42.666;23.600;2022-09-20T06:47:05;0.30;;;0.30;;
6346;SDS011;3206;42.666;23.600;2022-09-20T06:49:32;0.57;;;0.57;;
6346;SDS011;3206;42.666;23.600;2022-09-20T06:52:01;0.40;;;0.40;;
6346;SDS011;3206;42.666;23.600;2022-09-20T06:54:30;0.30;;;0.30;;
6346;SDS011;3206;42.666;23.600;2022-09-20T06:56:57;0.40;;;0.40;;
6346;SDS011;3206;42.666;23.600;2022-09-20T06:59:28;0.60;;;0.60;;
6346;SDS011;3206;42.666;23.600;2022-09-20T07:01:55;0.40;;;0.40;;
6346;SDS011;3206;42.666;23.600;2022-09-20T07:04:21;1.33;;;0.70;;
6346;SDS011;3206;42.666;23.600;2022-09-20T07:06:50;0.50;;;0.50;;
6346;SDS011;3206;42.666;23.600;2022-09-20T07:09:19;0.30;;;0.30;;
6346;SDS011;3206;42.666;23.600;2022-09-20T07:11:46;0.57;;;0.40;;
6346;SDS011;3206;42.666;23.600;2022-09-20T07:14:13;7.13;;;0.73;;
6346;SDS011;3206;42.666;23.600;2022-09-20T07:16:40;1.07;;;0.97;;
6346;SDS011;3206;42.666;23.600;2022-09-20T07:19:06;0.37;;;0.37;;
6346;SDS011;3206;42.666;23.600;2022-09-20T07:21:33;0.73;;;0.73;;
6346;SDS011;3206;42.666;23.600;2022-09-20T07:24:00;0.80;;;0.80;;
6346;SDS011;3206;42.666;23.600;2022-09-20T07:26:28;0.70;;;0.70;;
6346;SDS011;3206;42.666;23.600;2022-09-20T07:28:56;0.70;;;0.70;;
6346;SDS011;3206;42.666;23.600;2022-09-20T07:31:25;0.80;;;0.80;;
6346;SDS011;3206;42.666;23.600;2022-09-20T07:33:52;0.50;;;0.50;;
6346;SDS011;3206;42.666;23.600;2022-09-20T07:36:19;0.77;;;0.77;;
6346;SDS011;3206;42.666;23.600;2022-09-20T07:38:47;2.53;;;0.70;;
6346;SDS011;3206;42.666;23.600;2022-09-20T07:41:15;0.70;;;0.70;;
6346;SDS011;3206;42.666;23.600;2022-09-20T07:43:45;0.70;;;0.70;;
6346;SDS011;3206;42.666;23.600;2022-09-20T07:46:11;0.50;;;0.50;;
6346;SDS011;3206;42.666;23.600;2022-09-20T07:48:38;0.43;;;0.43;;
6346;SDS011;3206;42.666;23.600;2022-09-20T07:51:07;0.60;;;0.60;;
6346;SDS011;3206;42.666;23.600;2022-09-20T07:53:34;0.50;;;0.50;;
6346;SDS011;3206;42.666;23.600;2022-09-20T07:56:02;0.32;;;0.32;;
6346;SDS011;3206;42.666;23.600;2022-09-20T07:58:31;0.40;;;0.40;;
6346;SDS011;3206;42.666;23.600;2022-09-20T08:01:00;0.40;;;0.40;;
6346;SDS011;3206;42.666;23.600;2022-09-20T08:03:29;0.57;;;0.57;;
6346;SDS011;3206;42.666;23.600;2022-09-20T08:06:00;1.47;;;0.83;;
6346;SDS011;3206;42.666;23.600;2022-09-20T08:08:30;0.30;;;0.30;;
6346;SDS011;3206;42.666;23.600;2022-09-20T08:11:00;0.50;;;0.50;;
6346;SDS011;3206;42.666;23.600;2022-09-20T08:13:29;0.30;;;0.30;;
6346;SDS011;3206;42.666;23.600;2022-09-20T08:16:01;0.43;;;0.43;;
6346;SDS011;3206;42.666;23.600;2022-09-20T08:18:27;1.10;;;1.00;;
6346;SDS011;3206;42.666;23.600;2022-09-20T08:20:55;0.30;;;0.30;;
6346;SDS011;3206;42.666;23.600;2022-09-20T08:23:21;4.27;;;0.63;;
6346;SDS011;3206;42.666;23.600;2022-09-20T08:25:48;13.87;;;0.80;;
6346;SDS011;3206;42.666;23.600;2022-09-20T08:28:15;0.60;;;0.60;;
6346;SDS011;3206;42.666;23.600;2022-09-20T08:30:42;0.40;;;0.40;;
6346;SDS011;3206;42.666;23.600;2022-09-20T08:33:10;0.50;;;0.50;;
6346;SDS011;3206;42.666;23.600;2022-09-20T08:35:37;0.40;;;0.40;;
6346;SDS011;3206;42.666;23.600;2022-09-20T08:38:03;0.50;;;0.50;;
6346;SDS011;3206;42.666;23.600;2022-09-20T08:40:31;0.57;;;0.43;;
6346;SDS011;3206;42.666;23.600;2022-09-20T08:42:59;0.40;;;0.40;;
6346;SDS011;3206;42.666;23.600;2022-09-20T08:45:29;0.43;;;0.43;;
6346;SDS011;3206;42.666;23.600;2022-09-20T08:47:57;0.40;;;0.40;;
6346;SDS011;3206;42.666;23.600;2022-09-20T08:50:27;3.90;;;0.47;;
6346;SDS011;3206;42.666;23.600;2022-09-20T08:52:54;0.45;;;0.45;;
6346;SDS011;3206;42.666;23.600;2022-09-20T08:55:24;0.50;;;0.50;;
6346;SDS011;3206;42.666;23.600;2022-09-20T08:57:56;0.40;;;0.40;;
6346;SDS011;3206;42.666;23.600;2022-09-20T09:00:25;0.55;;;0.55;;
6346;SDS011;3206;42.666;23.600;2022-09-20T09:02:57;0.40;;;0.40;;
6346;SDS011;3206;42.666;23.600;2022-09-20T09:05:31;0.50;;;0.50;;
6346;SDS011;3206;42.666;23.600;2022-09-20T09:08:01;0.82;;;0.82;;
6346;SDS011;3206;42.666;23.600;2022-09-20T09:10:33;0.50;;;0.50;;
6346;SDS011;3206;42.666;23.600;2022-09-20T09:13:04;11.13;;;1.30;;
6346;SDS011;3206;42.666;23.600;2022-09-20T09:15:32;0.60;;;0.60;;
6346;SDS011;3206;42.666;23.600;2022-09-20T09:18:00;0.50;;;0.50;;
6346;SDS011;3206;42.666;23.600;2022-09-20T09:20:28;0.40;;;0.40;;
6346;SDS011;3206;42.666;23.600;2022-09-20T09:22:59;0.60;;;0.60;;
6346;SDS011;3206;42.666;23.600;2022-09-20T09:25:29;0.98;;;0.95;;
6346;SDS011;3206;42.666;23.600;2022-09-20T09:27:59;1.35;;;0.80;;
6346;SDS011;3206;42.666;23.600;2022-09-20T09:30:28;0.63;;;0.63;;
6346;SDS011;3206;42.666;23.600;2022-09-20T09:33:14;0.65;;;0.65;;
6346;SDS011;3206;42.666;23.600;2022-09-20T09:35:43;0.65;;;0.60;;
6346;SDS011;3206;42.666;23.600;2022-09-20T09:38:19;0.98;;;0.98;;
6346;SDS011;3206;42.666;23.600;2022-09-20T09:40:49;1.38;;;1.30;;
6346;SDS011;3206;42.666;23.600;2022-09-20T09:43:19;2.38;;;1.08;;
6346;SDS011;3206;42.666;23.600;2022-09-20T09:45:51;1.13;;;1.13;;
6346;SDS011;3206;42.666;23.600;2022-09-20T09:48:22;0.90;;;0.90;;
6346;SDS011;3206;42.666;23.600;2022-09-20T09:51:07;1.08;;;1.08;;
6346;SDS011;3206;42.666;23.600;2022-09-20T09:53:37;1.52;;;0.80;;
6346;SDS011;3206;42.666;23.600;2022-09-20T09:56:14;1.25;;;1.20;;
6346;SDS011;3206;42.666;23.600;2022-09-20T09:58:54;0.82;;;0.82;;
6346;SDS011;3206;42.666;23.600;2022-09-20T10:01:41;1.00;;;1.00;;
6346;SDS011;3206;42.666;23.600;2022-09-20T10:04:19;0.88;;;0.88;;
6346;SDS011;3206;42.666;23.600;2022-09-20T10:06:56;0.95;;;0.95;;
6346;SDS011;3206;42.666;23.600;2022-09-20T10:09:31;2.55;;;1.13;;
6346;SDS011;3206;42.666;23.600;2022-09-20T10:12:12;0.80;;;0.80;;
6346;SDS011;3206;42.666;23.600;2022-09-20T10:14:54;0.57;;;0.57;;
6346;SDS011;3206;42.666;23.600;2022-09-20T10:17:39;0.88;;;0.88;;
6346;SDS011;3206;42.666;23.600;2022-09-20T10:20:28;0.75;;;0.75;;
6346;SDS011;3206;42.666;23.600;2022-09-20T10:23:07;1.52;;;1.48;;
6346;SDS011;3206;42.666;23.600;2022-09-20T10:25:47;0.93;;;0.93;;
6346;SDS011;3206;42.666;23.600;2022-09-20T10:28:33;8.25;;;1.40;;
6346;SDS011;3206;42.666;23.600;2022-09-20T10:31:20;0.75;;;0.75;;
6346;SDS011;3206;42.666;23.600;2022-09-20T10:34:04;0.80;;;0.80;;
6346;SDS011;3206;42.666;23.600;2022-09-20T10:36:44;0.85;;;0.85;;
6346;SDS011;3206;42.666;23.600;2022-09-20T10:39:17;1.13;;;1.02;;
6346;SDS011;3206;42.666;23.600;2022-09-20T10:41:53;0.80;;;0.80;;
6346;SDS011;3206;42.666;23.600;2022-09-20T10:44:53;1.00;;;1.00;;
6346;SDS011;3206;42.666;23.600;2022-09-20T10:47:30;0.77;;;0.77;;
6346;SDS011;3206;42.666;23.600;2022-09-20T10:50:01;1.02;;;0.98;;
6346;SDS011;3206;42.666;23.600;2022-09-20T10:55:35;0.95;;;0.95;;
6346;SDS011;3206;42.666;23.600;2022-09-20T11:01:33;1.20;;;1.10;;
6346;SDS011;3206;42.666;23.600;2022-09-20T11:04:21;1.02;;;0.93;;
6346;SDS011;3206;42.666;23.600;2022-09-20T11:07:07;0.95;;;0.95;;
6346;SDS011;3206;42.666;23.600;2022-09-20T11:09:37;1.00;;;1.00;;
6346;SDS011;3206;42.666;23.600;2022-09-20T11:12:09;0.70;;;0.70;;
6346;SDS011;3206;42.666;23.600;2022-09-20T11:14:41;0.57;;;0.57;;
6346;SDS011;3206;42.666;23.600;2022-09-20T11:17:16;0.63;;;0.63;;
6346;SDS011;3206;42.666;23.600;2022-09-20T11:19:50;0.82;;;0.82;;
6346;SDS011;3206;42.666;23.600;2022-09-20T11:22:23;0.52;;;0.52;;
6346;SDS011;3206;42.666;23.600;2022-09-20T11:24:56;0.82;;;0.82;;
6346;SDS011;3206;42.666;23.600;2022-09-20T11:27:29;1.08;;;1.08;;
6346;SDS011;3206;42.666;23.600;2022-09-20T11:30:00;1.20;;;1.20;;
6346;SDS011;3206;42.666;23.600;2022-09-20T11:32:34;0.80;;;0.80;;
6346;SDS011;3206;42.666;23.600;2022-09-20T11:35:13;1.20;;;1.13;;
6346;SDS011;3206;42.666;23.600;2022-09-20T11:37:51;0.68;;;0.68;;
6346;SDS011;3206;42.666;23.600;2022-09-20T11:40:24;1.40;;;1.08;;
6346;SDS011;3206;42.666;23.600;2022-09-20T11:42:54;0.98;;;0.98;;
6346;SDS011;3206;42.666;23.600;2022-09-20T11:45:25;0.70;;;0.70;;
6346;SDS011;3206;42.666;23.600;2022-09-20T11:47:55;1.52;;;1.00;;
6346;SDS011;3206;42.666;23.600;2022-09-20T11:53:28;0.88;;;0.88;;
6346;SDS011;3206;42.666;23.600;2022-09-20T11:56:09;1.00;;;1.00;;
6346;SDS011;3206;42.666;23.600;2022-09-20T11:58:44;1.08;;;1.08;;
6346;SDS011;3206;42.666;23.600;2022-09-20T12:01:14;2.97;;;1.40;;
6346;SDS011;3206;42.666;23.600;2022-09-20T12:03:43;0.82;;;0.82;;
6346;SDS011;3206;42.666;23.600;2022-09-20T12:06:28;1.15;;;1.15;;
6346;SDS011;3206;42.666;23.600;2022-09-20T12:08:57;1.00;;;1.00;;
6346;SDS011;3206;42.666;23.600;2022-09-20T12:11:28;1.05;;;1.05;;
6346;SDS011;3206;42.666;23.600;2022-09-20T12:14:00;1.00;;;1.00;;
6346;SDS011;3206;42.666;23.600;2022-09-20T12:16:46;1.40;;;1.40;;
6346;SDS011;3206;42.666;23.600;2022-09-20T12:19:15;1.67;;;1.23;;
6346;SDS011;3206;42.666;23.600;2022-09-20T12:22:15;1.10;;;1.00;;
6346;SDS011;3206;42.666;23.600;2022-09-20T12:28:13;0.98;;;0.98;;
6346;SDS011;3206;42.666;23.600;2022-09-20T12:30:41;0.77;;;0.77;;
6346;SDS011;3206;42.666;23.600;2022-09-20T12:33:17;0.85;;;0.85;;
6346;SDS011;3206;42.666;23.600;2022-09-20T12:38:51;1.52;;;1.42;;
6346;SDS011;3206;42.666;23.600;2022-09-20T12:41:25;1.17;;;1.17;;
6346;SDS011;3206;42.666;23.600;2022-09-20T12:43:54;1.52;;;1.30;;
6346;SDS011;3206;42.666;23.600;2022-09-20T12:46:25;0.70;;;0.70;;
6346;SDS011;3206;42.666;23.600;2022-09-20T12:52:03;2.47;;;1.20;;
6346;SDS011;3206;42.666;23.600;2022-09-20T12:54:48;0.52;;;0.52;;
6346;SDS011;3206;42.666;23.600;2022-09-20T12:57:24;1.50;;;1.40;;
6346;SDS011;3206;42.666;23.600;2022-09-20T12:59:58;1.38;;;1.30;;
6346;SDS011;3206;42.666;23.600;2022-09-20T13:05:29;1.10;;;1.00;;
6346;SDS011;3206;42.666;23.600;2022-09-20T13:08:02;2.17;;;1.17;;
6346;SDS011;3206;42.666;23.600;2022-09-20T13:10:39;1.08;;;1.05;;
6346;SDS011;3206;42.666;23.600;2022-09-20T13:13:14;2.67;;;2.03;;
6346;SDS011;3206;42.666;23.600;2022-09-20T13:15:53;5.03;;;1.00;;
6346;SDS011;3206;42.666;23.600;2022-09-20T13:18:21;1.42;;;1.35;;
6346;SDS011;3206;42.666;23.600;2022-09-20T13:20:50;1.20;;;1.20;;
6346;SDS011;3206;42.666;23.600;2022-09-20T13:23:20;1.48;;;1.33;;
6346;SDS011;3206;42.666;23.600;2022-09-20T13:25:51;1.10;;;1.10;;
6346;SDS011;3206;42.666;23.600;2022-09-20T13:28:30;1.35;;;1.27;;
6346;SDS011;3206;42.666;23.600;2022-09-20T13:31:20;1.52;;;1.05;;
6346;SDS011;3206;42.666;23.600;2022-09-20T13:36:37;1.52;;;1.42;;
6346;SDS011;3206;42.666;23.600;2022-09-20T13:39:20;1.58;;;1.48;;
6346;SDS011;3206;42.666;23.600;2022-09-20T13:41:57;1.40;;;1.30;;
6346;SDS011;3206;42.666;23.600;2022-09-20T13:44:28;1.25;;;1.15;;
6346;SDS011;3206;42.666;23.600;2022-09-20T13:46:57;0.77;;;0.77;;
6346;SDS011;3206;42.666;23.600;2022-09-20T13:49:24;0.70;;;0.70;;
6346;SDS011;3206;42.666;23.600;2022-09-20T13:51:56;0.77;;;0.77;;
6346;SDS011;3206;42.666;23.600;2022-09-20T13:54:26;1.15;;;1.15;;
6346;SDS011;3206;42.666;23.600;2022-09-20T13:56:54;1.00;;;1.00;;
6346;SDS011;3206;42.666;23.600;2022-09-20T13:59:24;1.23;;;1.13;;
6346;SDS011;3206;42.666;23.600;2022-09-20T14:01:57;0.88;;;0.88;;
6346;SDS011;3206;42.666;23.600;2022-09-20T14:04:25;1.63;;;1.52;;
6346;SDS011;3206;42.666;23.600;2022-09-20T14:06:55;0.75;;;0.75;;
6346;SDS011;3206;42.666;23.600;2022-09-20T14:09:27;1.05;;;1.00;;
6346;SDS011;3206;42.666;23.600;2022-09-20T14:11:56;1.60;;;1.50;;
6346;SDS011;3206;42.666;23.600;2022-09-20T14:14:24;0.80;;;0.80;;
6346;SDS011;3206;42.666;23.600;2022-09-20T14:16:52;4.32;;;1.98;;
6346;SDS011;3206;42.666;23.600;2022-09-20T14:19:22;1.65;;;1.55;;
6346;SDS011;3206;42.666;23.600;2022-09-20T14:21:55;2.10;;;1.30;;
6346;SDS011;3206;42.666;23.600;2022-09-20T14:24:28;1.20;;;0.93;;
6346;SDS011;3206;42.666;23.600;2022-09-20T14:27:04;1.50;;;1.40;;
6346;SDS011;3206;42.666;23.600;2022-09-20T14:29:40;1.10;;;1.05;;
6346;SDS011;3206;42.666;23.600;2022-09-20T14:32:10;1.40;;;1.30;;
6346;SDS011;3206;42.666;23.600;2022-09-20T14:35:02;1.38;;;1.30;;
6346;SDS011;3206;42.666;23.600;2022-09-20T14:37:41;1.02;;;1.02;;
6346;SDS011;3206;42.666;23.600;2022-09-20T14:40:17;0.70;;;0.70;;
6346;SDS011;3206;42.666;23.600;2022-09-20T14:42:48;0.80;;;0.80;;
6346;SDS011;3206;42.666;23.600;2022-09-20T14:45:19;1.00;;;1.00;;
6346;SDS011;3206;42.666;23.600;2022-09-20T14:47:52;1.08;;;1.08;;
6346;SDS011;3206;42.666;23.600;2022-09-20T14:50:23;1.48;;;1.35;;
6346;SDS011;3206;42.666;23.600;2022-09-20T14:52:59;1.17;;;1.17;;
6346;SDS011;3206;42.666;23.600;2022-09-20T14:55:32;4.03;;;0.98;;
6346;SDS011;3206;42.666;23.600;2022-09-20T14:58:04;1.23;;;1.17;;
6346;SDS011;3206;42.666;23.600;2022-09-20T15:00:48;0.90;;;0.82;;
6346;SDS011;3206;42.666;23.600;2022-09-20T15:03:20;1.30;;;1.30;;
6346;SDS011;3206;42.666;23.600;2022-09-20T15:05:51;1.40;;;1.30;;
6346;SDS011;3206;42.666;23.600;2022-09-20T15:08:18;1.20;;;1.17;;
6346;SDS011;3206;42.666;23.600;2022-09-20T15:10:47;0.82;;;0.82;;
6346;SDS011;3206;42.666;23.600;2022-09-20T15:13:14;1.23;;;1.13;;
6346;SDS011;3206;42.666;23.600;2022-09-20T15:15:40;1.25;;;1.20;;
6346;SDS011;3206;42.666;23.600;2022-09-20T15:18:13;1.80;;;1.70;;
6346;SDS011;3206;42.666;23.600;2022-09-20T15:20:45;1.15;;;1.15;;
6346;SDS011;3206;42.666;23.600;2022-09-20T15:23:12;1.40;;;1.30;;
6346;SDS011;3206;42.666;23.600;2022-09-20T15:25:42;1.45;;;1.33;;
6346;SDS011;3206;42.666;23.600;2022-09-20T15:28:13;1.05;;;1.00;;
6346;SDS011;3206;42.666;23.600;2022-09-20T15:30:42;1.33;;;1.30;;
6346;SDS011;3206;42.666;23.600;2022-09-20T15:33:09;1.23;;;1.20;;
6346;SDS011;3206;42.666;23.600;2022-09-20T15:35:36;1.25;;;1.15;;
6346;SDS011;3206;42.666;23.600;2022-09-20T15:38:04;1.25;;;1.15;;
6346;SDS011;3206;42.666;23.600;2022-09-20T15:40:37;1.30;;;1.00;;
6346;SDS011;3206;42.666;23.600;2022-09-20T15:43:04;1.15;;;1.15;;
6346;SDS011;3206;42.666;23.600;2022-09-20T15:45:34;1.25;;;1.15;;
6346;SDS011;3206;42.666;23.600;2022-09-20T15:48:01;0.60;;;0.60;;
6346;SDS011;3206;42.666;23.600;2022-09-20T15:50:28;0.93;;;0.93;;
6346;SDS011;3206;42.666;23.600;2022-09-20T15:52:55;1.10;;;1.10;;
6346;SDS011;3206;42.666;23.600;2022-09-20T15:55:22;0.82;;;0.82;;
6346;SDS011;3206;42.666;23.600;2022-09-20T15:57:49;1.02;;;1.02;;
6346;SDS011;3206;42.666;23.600;2022-09-20T16:00:15;1.10;;;1.10;;
6346;SDS011;3206;42.666;23.600;2022-09-20T16:02:44;11.38;;;1.15;;
6346;SDS011;3206;42.666;23.600;2022-09-20T16:05:13;1.17;;;1.17;;
6346;SDS011;3206;42.666;23.600;2022-09-20T16:07:40;0.70;;;0.70;;
6346;SDS011;3206;42.666;23.600;2022-09-20T16:10:07;0.65;;;0.65;;
6346;SDS011;3206;42.666;23.600;2022-09-20T16:12:34;1.02;;;0.95;;
6346;SDS011;3206;42.666;23.600;2022-09-20T16:15:00;0.85;;;0.85;;
6346;SDS011;3206;42.666;23.600;2022-09-20T16:17:27;0.70;;;0.70;;
6346;SDS011;3206;42.666;23.600;2022-09-20T16:20:12;1.20;;;1.20;;
6346;SDS011;3206;42.666;23.600;2022-09-20T16:22:39;0.98;;;0.98;;
6346;SDS011;3206;42.666;23.600;2022-09-20T16:25:06;0.65;;;0.65;;
6346;SDS011;3206;42.666;23.600;2022-09-20T16:27:33;1.48;;;0.60;;
6346;SDS011;3206;42.666;23.600;2022-09-20T16:30:00;0.60;;;0.60;;
6346;SDS011;3206;42.666;23.600;2022-09-20T16:32:27;1.00;;;1.00;;
6346;SDS011;3206;42.666;23.600;2022-09-20T16:34:54;1.38;;;0.75;;
6346;SDS011;3206;42.666;23.600;2022-09-20T16:37:23;1.47;;;1.47;;